Time;durP1;ratioP1;P1;durP2;ratioP2;P2;SDS_P1;SDS_P2;PMS_P1;PMS_P2;Temp;Humidity;BMP_temperature;BMP_pressure;BME280_temperature;BME280_humidity;BME280_pressure;Samples;Min_cycle;Max_cycle;Signal;HPM_P1;HPM_P2
2021/05/09 00:00:16;;;;;;;5.70;1.67;;;;;;;;;;5011555;28;20271;-63
2021/05/09 00:02:42;;;;;;;4.00;2.00;;;;;;;;;;5011470;28;20690;-65
2021/05/09 00:05:07;;;;;;;3.65;1.88;;;;;;;;;;5021034;22;20528;-62
2021/05/09 00:07:33;;;;;;;8.15;1.52;;;;;;;;;;5011859;28;20101;-63
2021/05/09 00:09:58;;;;;;;8.57;1.47;;;;;;;;;;5029264;28;20032;-64
2021/05/09 00:12:23;;;;;;;5.50;2.08;;;;;;;;;;5011397;28;20339;-63
2021/05/09 00:14:48;;;;;;;2.85;1.30;;;;;;;;;;5011718;28;20083;-63
2021/05/09 00:17:13;;;;;;;1.90;1.58;;;;;;;;;;5011340;28;20029;-63
2021/05/09 00:19:39;;;;;;;2.50;1.60;;;;;;;;;;5011442;28;20037;-64
2021/05/09 00:22:04;;;;;;;2.15;1.40;;;;;;;;;;5010068;28;20776;-63
2021/05/09 00:24:29;;;;;;;3.13;1.93;;;;;;;;;;5011745;28;20368;-63
2021/05/09 00:26:54;;;;;;;4.70;1.87;;;;;;;;;;5010583;28;20264;-63
2021/05/09 00:29:19;;;;;;;2.90;1.73;;;;;;;;;;5011532;28;20841;-62
2021/05/09 00:31:45;;;;;;;11.68;1.90;;;;;;;;;;5009569;28;20272;-63
2021/05/09 00:34:10;;;;;;;2.65;1.65;;;;;;;;;;5011690;28;20029;-62
2021/05/09 00:36:35;;;;;;;4.43;2.00;;;;;;;;;;5010417;28;20037;-63
2021/05/09 00:39:00;;;;;;;5.35;1.95;;;;;;;;;;5010782;28;20018;-63
2021/05/09 00:41:25;;;;;;;3.30;1.73;;;;;;;;;;5010930;28;20025;-63
2021/05/09 00:43:51;;;;;;;5.97;1.85;;;;;;;;;;5011375;28;20761;-63
2021/05/09 00:46:16;;;;;;;5.05;2.38;;;;;;;;;;5010777;28;20033;-64
2021/05/09 00:48:41;;;;;;;2.90;1.83;;;;;;;;;;5010841;28;20105;-63
2021/05/09 00:51:06;;;;;;;5.63;1.70;;;;;;;;;;5009461;28;20261;-62
2021/05/09 00:53:33;;;;;;;5.20;1.80;;;;;;;;;;5010882;28;20276;-63
2021/05/09 00:56:01;;;;;;;5.95;2.30;;;;;;;;;;5010838;28;20038;-62
2021/05/09 00:58:26;;;;;;;8.20;2.00;;;;;;;;;;5009447;28;20112;-63
2021/05/09 01:00:52;;;;;;;2.78;1.67;;;;;;;;;;5009797;28;20104;-63
2021/05/09 01:03:20;;;;;;;4.03;1.70;;;;;;;;;;5009296;28;20032;-63
2021/05/09 01:05:46;;;;;;;4.10;2.38;;;;;;;;;;5002626;28;20041;-63
2021/05/09 01:08:11;;;;;;;4.82;1.98;;;;;;;;;;5009099;28;20018;-62
2021/05/09 01:10:36;;;;;;;4.50;2.33;;;;;;;;;;5010445;28;20512;-64
2021/05/09 01:13:01;;;;;;;2.50;1.50;;;;;;;;;;5008259;28;20276;-62
2021/05/09 01:15:27;;;;;;;4.03;2.17;;;;;;;;;;5008932;28;20721;-64
2021/05/09 01:17:52;;;;;;;3.25;1.88;;;;;;;;;;5007433;28;20275;-63
2021/05/09 01:20:17;;;;;;;2.87;1.80;;;;;;;;;;5010767;28;20025;-63
2021/05/09 01:22:43;;;;;;;3.17;1.73;;;;;;;;;;5008001;28;20265;-63
2021/05/09 01:25:09;;;;;;;5.93;1.95;;;;;;;;;;5010067;28;20061;-63
2021/05/09 01:27:34;;;;;;;1.48;0.90;;;;;;;;;;5009178;28;20029;-63
2021/05/09 01:29:59;;;;;;;6.93;2.00;;;;;;;;;;5010997;28;20033;-63
2021/05/09 01:32:24;;;;;;;3.40;1.80;;;;;;;;;;5006481;28;20026;-63
2021/05/09 01:34:50;;;;;;;4.78;2.03;;;;;;;;;;5009700;28;20025;-62
2021/05/09 01:37:15;;;;;;;6.72;2.33;;;;;;;;;;5008839;28;20022;-63
2021/05/09 01:39:40;;;;;;;7.40;3.10;;;;;;;;;;5010251;28;20045;-63
2021/05/09 01:42:05;;;;;;;7.50;3.17;;;;;;;;;;5007507;28;20261;-64
2021/05/09 01:44:31;;;;;;;6.28;3.38;;;;;;;;;;5009521;28;20246;-63
2021/05/09 01:46:56;;;;;;;7.83;2.50;;;;;;;;;;5008229;28;20033;-64
2021/05/09 01:49:21;;;;;;;4.50;2.40;;;;;;;;;;5009492;28;20268;-63
2021/05/09 01:51:46;;;;;;;5.10;3.20;;;;;;;;;;5010012;28;20296;-62
2021/05/09 01:54:11;;;;;;;4.07;2.28;;;;;;;;;;5010069;28;20064;-63
2021/05/09 01:56:37;;;;;;;4.07;1.97;;;;;;;;;;5009911;28;20034;-62
2021/05/09 01:59:02;;;;;;;5.75;1.58;;;;;;;;;;5009914;28;20261;-63
2021/05/09 02:01:28;;;;;;;5.63;1.65;;;;;;;;;;5010042;28;20030;-63
2021/05/09 02:03:53;;;;;;;3.10;1.92;;;;;;;;;;5009608;28;20057;-63
2021/05/09 02:06:18;;;;;;;3.47;1.70;;;;;;;;;;5009480;28;20022;-63
2021/05/09 02:08:43;;;;;;;5.40;1.90;;;;;;;;;;5011176;28;20307;-63
2021/05/09 02:11:09;;;;;;;2.38;1.30;;;;;;;;;;5013391;28;20041;-63
2021/05/09 02:13:34;;;;;;;4.65;1.77;;;;;;;;;;5013538;28;20355;-63
2021/05/09 02:15:59;;;;;;;3.07;1.53;;;;;;;;;;5013665;28;20307;-63
2021/05/09 02:18:24;;;;;;;4.77;2.03;;;;;;;;;;5013891;28;20827;-64
2021/05/09 02:20:49;;;;;;;3.50;1.47;;;;;;;;;;5014266;28;20291;-62
2021/05/09 02:23:14;;;;;;;2.10;1.05;;;;;;;;;;5013347;28;20273;-64
2021/05/09 02:25:40;;;;;;;4.80;1.90;;;;;;;;;;5013315;28;20056;-63
2021/05/09 02:28:05;;;;;;;3.37;1.53;;;;;;;;;;5014184;28;20257;-64
2021/05/09 02:30:30;;;;;;;3.63;1.20;;;;;;;;;;5012944;28;20310;-63
2021/05/09 02:32:55;;;;;;;6.10;1.70;;;;;;;;;;5003025;28;20040;-63
2021/05/09 02:35:21;;;;;;;3.13;1.50;;;;;;;;;;5014250;28;20030;-63
2021/05/09 02:37:46;;;;;;;4.32;1.90;;;;;;;;;;5013421;28;20284;-64
2021/05/09 02:40:11;;;;;;;4.45;1.83;;;;;;;;;;5013991;28;20057;-63
2021/05/09 02:42:36;;;;;;;3.92;1.52;;;;;;;;;;5012630;28;20374;-63
2021/05/09 02:45:03;;;;;;;2.37;1.37;;;;;;;;;;5012874;28;20682;-63
2021/05/09 02:47:28;;;;;;;4.15;1.83;;;;;;;;;;5013378;28;20268;-63
2021/05/09 02:49:54;;;;;;;2.67;1.25;;;;;;;;;;5013518;28;20010;-63
2021/05/09 02:52:20;;;;;;;3.35;1.70;;;;;;;;;;5013364;28;20461;-63
2021/05/09 02:54:45;;;;;;;4.68;1.95;;;;;;;;;;5013002;28;20097;-63
2021/05/09 02:57:10;;;;;;;2.07;1.37;;;;;;;;;;5013390;28;20096;-63
2021/05/09 02:59:35;;;;;;;4.07;1.77;;;;;;;;;;5013113;28;20253;-63
2021/05/09 03:02:00;;;;;;;3.23;2.20;;;;;;;;;;5013048;28;20276;-63
2021/05/09 03:04:25;;;;;;;1.52;1.30;;;;;;;;;;5012082;28;20935;-63
2021/05/09 03:06:51;;;;;;;4.77;1.70;;;;;;;;;;5013243;28;20084;-63
2021/05/09 03:09:16;;;;;;;5.07;2.07;;;;;;;;;;5012883;28;20273;-63
2021/05/09 03:11:41;;;;;;;1.63;1.40;;;;;;;;;;5012671;28;20320;-62
2021/05/09 03:14:06;;;;;;;3.92;1.70;;;;;;;;;;5012427;28;20288;-63
2021/05/09 03:16:31;;;;;;;3.70;1.70;;;;;;;;;;5012730;28;20367;-62
2021/05/09 03:18:56;;;;;;;3.30;1.80;;;;;;;;;;5012510;28;20310;-63
2021/05/09 03:21:22;;;;;;;6.03;1.73;;;;;;;;;;5013049;28;20265;-63
2021/05/09 03:23:47;;;;;;;1.65;1.05;;;;;;;;;;5013012;28;20265;-63
2021/05/09 03:26:12;;;;;;;5.65;1.63;;;;;;;;;;5012461;28;20080;-63
2021/05/09 03:28:39;;;;;;;6.18;1.40;;;;;;;;;;5012165;28;20046;-63
2021/05/09 03:31:04;;;;;;;2.85;1.42;;;;;;;;;;5012521;28;20543;-62
2021/05/09 03:33:29;;;;;;;2.23;1.47;;;;;;;;;;5011409;28;20586;-63
2021/05/09 03:35:54;;;;;;;6.37;1.40;;;;;;;;;;5012677;28;20257;-63
2021/05/09 03:38:20;;;;;;;4.15;1.73;;;;;;;;;;5011740;28;20293;-63
2021/05/09 03:40:45;;;;;;;6.60;1.60;;;;;;;;;;5011970;28;20025;-63
2021/05/09 03:43:10;;;;;;;4.60;1.83;;;;;;;;;;5011983;28;20030;-63
2021/05/09 03:45:35;;;;;;;3.35;1.80;;;;;;;;;;5012477;28;20265;-63
2021/05/09 03:48:00;;;;;;;4.03;1.63;;;;;;;;;;5011993;28;20535;-62
2021/05/09 03:50:26;;;;;;;6.88;1.63;;;;;;;;;;5005282;28;20018;-63
2021/05/09 03:52:51;;;;;;;4.03;1.70;;;;;;;;;;5012170;28;20136;-63
2021/05/09 03:55:16;;;;;;;5.85;1.75;;;;;;;;;;5011750;28;20276;-64
2021/05/09 03:57:42;;;;;;;5.40;1.63;;;;;;;;;;5011924;28;20069;-63
2021/05/09 04:00:07;;;;;;;3.60;1.80;;;;;;;;;;5005789;28;20311;-63
2021/05/09 04:02:32;;;;;;;3.10;1.55;;;;;;;;;;5012126;28;20065;-63
2021/05/09 04:04:58;;;;;;;3.95;1.42;;;;;;;;;;5011778;28;20030;-63
2021/05/09 04:07:23;;;;;;;4.67;1.97;;;;;;;;;;5011334;28;20018;-63
2021/05/09 04:09:48;;;;;;;3.53;1.75;;;;;;;;;;5012460;28;20744;-63
2021/05/09 04:12:14;;;;;;;10.77;1.75;;;;;;;;;;5011306;28;20532;-63
2021/05/09 04:14:39;;;;;;;7.33;1.63;;;;;;;;;;5010744;28;20030;-63
2021/05/09 04:17:04;;;;;;;4.27;2.10;;;;;;;;;;5011836;28;20300;-63
2021/05/09 04:19:29;;;;;;;4.25;1.80;;;;;;;;;;5011478;28;20265;-64
2021/05/09 04:21:55;;;;;;;4.38;1.90;;;;;;;;;;5012180;28;20485;-63
2021/05/09 04:24:22;;;;;;;5.28;2.03;;;;;;;;;;5011737;28;20030;-62
2021/05/09 04:26:47;;;;;;;6.90;1.83;;;;;;;;;;5011116;28;20025;-62
2021/05/09 04:29:12;;;;;;;6.30;2.00;;;;;;;;;;5011013;28;20501;-63
2021/05/09 04:31:38;;;;;;;7.28;2.25;;;;;;;;;;5010739;28;20269;-63
2021/05/09 04:34:03;;;;;;;4.15;1.50;;;;;;;;;;5010558;28;20026;-63
2021/05/09 04:36:28;;;;;;;6.95;2.47;;;;;;;;;;5010814;28;20022;-63
2021/05/09 04:38:53;;;;;;;5.30;1.92;;;;;;;;;;5011129;28;20477;-64
2021/05/09 04:41:18;;;;;;;4.23;1.90;;;;;;;;;;5011302;28;20072;-63
2021/05/09 04:43:44;;;;;;;2.37;1.60;;;;;;;;;;5011469;28;20300;-63
2021/05/09 04:46:09;;;;;;;3.13;1.67;;;;;;;;;;5010959;28;20265;-63
2021/05/09 04:48:34;;;;;;;5.88;1.95;;;;;;;;;;5011477;28;20120;-63
2021/05/09 04:50:59;;;;;;;4.30;1.70;;;;;;;;;;5011301;28;20375;-63
2021/05/09 04:53:26;;;;;;;5.77;1.50;;;;;;;;;;5011514;28;20296;-63
2021/05/09 04:55:52;;;;;;;4.03;1.95;;;;;;;;;;5010615;28;20288;-63
2021/05/09 04:58:17;;;;;;;7.60;1.60;;;;;;;;;;5011566;28;20014;-63
2021/05/09 05:00:42;;;;;;;5.88;1.70;;;;;;;;;;5010118;28;20022;-63
2021/05/09 05:03:07;;;;;;;2.28;1.27;;;;;;;;;;5011949;28;20025;-62
2021/05/09 05:05:32;;;;;;;3.63;1.80;;;;;;;;;;5019660;28;20374;-63
2021/05/09 05:07:57;;;;;;;2.17;1.30;;;;;;;;;;5011311;28;20354;-64
2021/05/09 05:10:23;;;;;;;5.03;1.70;;;;;;;;;;5027599;28;20268;-63
2021/05/09 05:12:48;;;;;;;3.75;1.55;;;;;;;;;;5010628;28;20281;-62
2021/05/09 05:15:13;;;;;;;3.53;1.60;;;;;;;;;;5015960;28;20034;-63
2021/05/09 05:17:38;;;;;;;4.28;1.60;;;;;;;;;;5011259;28;20630;-63
2021/05/09 05:20:03;;;;;;;3.53;1.40;;;;;;;;;;5020043;28;20029;-64
2021/05/09 05:22:29;;;;;;;2.65;1.00;;;;;;;;;;5013601;28;20339;-63
2021/05/09 05:24:54;;;;;;;4.70;1.67;;;;;;;;;;5016429;28;20036;-63
2021/05/09 05:27:19;;;;;;;2.40;1.40;;;;;;;;;;5012756;28;20264;-64
2021/05/09 05:29:44;;;;;;;3.47;1.77;;;;;;;;;;5013681;28;20268;-63
2021/05/09 05:32:09;;;;;;;2.10;1.10;;;;;;;;;;5013829;28;20272;-64
2021/05/09 05:34:34;;;;;;;3.45;1.25;;;;;;;;;;5018524;28;20804;-63
2021/05/09 05:37:00;;;;;;;2.60;1.75;;;;;;;;;;5010207;28;20022;-63
2021/05/09 05:39:25;;;;;;;7.63;1.00;;;;;;;;;;5011208;28;20014;-62
2021/05/09 05:41:50;;;;;;;2.53;1.30;;;;;;;;;;5002069;28;20628;-64
2021/05/09 05:44:15;;;;;;;4.72;1.38;;;;;;;;;;5009043;28;20391;-63
2021/05/09 05:46:40;;;;;;;3.33;0.70;;;;;;;;;;5011102;28;20425;-63
2021/05/09 05:49:06;;;;;;;4.90;1.37;;;;;;;;;;4997067;28;20026;-64
2021/05/09 05:51:31;;;;;;;5.30;1.33;;;;;;;;;;5023613;28;20272;-64
2021/05/09 05:53:57;;;;;;;3.23;1.47;;;;;;;;;;5017656;28;20389;-63
2021/05/09 05:56:22;;;;;;;3.67;1.60;;;;;;;;;;5013651;28;20265;-62
2021/05/09 05:58:47;;;;;;;5.70;1.00;;;;;;;;;;5010862;28;20427;-63
2021/05/09 06:01:13;;;;;;;1.27;0.73;;;;;;;;;;5011073;28;20021;-64
2021/05/09 06:03:38;;;;;;;2.47;1.20;;;;;;;;;;5040550;22;20264;-69
2021/05/09 06:06:03;;;;;;;2.53;1.20;;;;;;;;;;5026044;28;20029;-69
2021/05/09 06:08:28;;;;;;;3.80;1.00;;;;;;;;;;5026988;28;20778;-69
2021/05/09 06:10:54;;;;;;;4.47;1.40;;;;;;;;;;5025644;28;20040;-68
2021/05/09 06:13:27;;;;;;;1.08;0.98;;;;;;;;;;5027135;28;20337;-69
2021/05/09 06:15:52;;;;;;;3.08;1.05;;;;;;;;;;5025086;28;20021;-70
2021/05/09 06:18:17;;;;;;;2.00;1.00;;;;;;;;;;5027233;28;20030;-69
2021/05/09 06:20:43;;;;;;;2.38;1.10;;;;;;;;;;5022780;28;20420;-70
2021/05/09 06:23:10;;;;;;;3.85;1.38;;;;;;;;;;5012065;28;20420;-68
2021/05/09 06:25:35;;;;;;;4.65;1.20;;;;;;;;;;5011963;28;20056;-70
2021/05/09 06:28:01;;;;;;;2.08;0.95;;;;;;;;;;5029505;28;20462;-70
2021/05/09 06:30:26;;;;;;;3.92;1.42;;;;;;;;;;5029796;28;20014;-69
2021/05/09 06:32:51;;;;;;;1.50;0.98;;;;;;;;;;5028965;28;20033;-70
2021/05/09 06:35:16;;;;;;;2.20;1.23;;;;;;;;;;5029459;28;20021;-69
2021/05/09 06:37:42;;;;;;;3.88;1.40;;;;;;;;;;5020842;28;20338;-70
2021/05/09 06:40:07;;;;;;;1.40;1.08;;;;;;;;;;5028006;28;20021;-67
2021/05/09 06:42:33;;;;;;;4.32;1.13;;;;;;;;;;5026898;28;20033;-68
2021/05/09 06:45:04;;;;;;;1.50;1.02;;;;;;;;;;5027433;28;20560;-69
2021/05/09 06:47:29;;;;;;;2.92;1.45;;;;;;;;;;5027201;28;20100;-68
2021/05/09 06:49:54;;;;;;;2.13;1.23;;;;;;;;;;5021921;28;20597;-68
2021/05/09 06:52:19;;;;;;;3.17;1.33;;;;;;;;;;5026895;28;20029;-68
2021/05/09 06:54:44;;;;;;;2.33;1.38;;;;;;;;;;5028834;28;20290;-68
2021/05/09 06:57:10;;;;;;;3.08;1.67;;;;;;;;;;5027761;28;20535;-69
2021/05/09 06:59:35;;;;;;;5.00;0.93;;;;;;;;;;5032673;28;20032;-69
2021/05/09 07:02:00;;;;;;;6.40;1.23;;;;;;;;;;5033549;28;20271;-70
2021/05/09 07:04:25;;;;;;;1.80;1.23;;;;;;;;;;5029517;28;20030;-69
2021/05/09 07:06:50;;;;;;;0.83;0.80;;;;;;;;;;5032127;28;20029;-69
2021/05/09 07:09:16;;;;;;;3.67;1.83;;;;;;;;;;5017486;28;20018;-69
2021/05/09 07:11:41;;;;;;;4.03;1.75;;;;;;;;;;5033240;28;20033;-69
2021/05/09 07:14:06;;;;;;;2.95;1.10;;;;;;;;;;5011946;28;20029;-69
2021/05/09 07:16:32;;;;;;;0.95;0.80;;;;;;;;;;5032214;28;20098;-68
2021/05/09 07:18:57;;;;;;;3.97;1.20;;;;;;;;;;5032653;28;20480;-68
2021/05/09 07:21:28;;;;;;;2.88;1.10;;;;;;;;;;5033150;28;20022;-69
2021/05/09 07:23:53;;;;;;;2.38;1.48;;;;;;;;;;5033090;28;20023;-69
2021/05/09 07:26:18;;;;;;;2.90;1.42;;;;;;;;;;5031581;28;20018;-69
2021/05/09 07:28:43;;;;;;;2.30;1.03;;;;;;;;;;5032316;28;20057;-69
2021/05/09 07:31:09;;;;;;;1.87;1.10;;;;;;;;;;5030267;28;20477;-69
2021/05/09 07:33:34;;;;;;;3.25;1.25;;;;;;;;;;5031017;28;20472;-69
2021/05/09 07:35:59;;;;;;;1.80;1.40;;;;;;;;;;5031960;28;20017;-69
2021/05/09 07:38:24;;;;;;;1.92;1.25;;;;;;;;;;5032491;28;20069;-69
2021/05/09 07:40:50;;;;;;;1.88;1.00;;;;;;;;;;5032197;28;20028;-67
2021/05/09 07:43:15;;;;;;;1.97;0.97;;;;;;;;;;5024404;28;20028;-68
2021/05/09 07:45:41;;;;;;;2.35;1.27;;;;;;;;;;5029372;28;20268;-68
2021/05/09 07:48:08;;;;;;;1.05;0.95;;;;;;;;;;5030331;28;20112;-69
2021/05/09 07:50:33;;;;;;;3.25;1.40;;;;;;;;;;5030274;28;20021;-68
2021/05/09 07:52:59;;;;;;;1.63;1.00;;;;;;;;;;5030427;28;20083;-68
2021/05/09 07:55:25;;;;;;;3.00;1.20;;;;;;;;;;5029993;28;20030;-68
2021/05/09 07:57:50;;;;;;;3.17;1.25;;;;;;;;;;5029311;28;20044;-68
2021/05/09 08:00:17;;;;;;;1.47;0.93;;;;;;;;;;5029840;28;20017;-69
2021/05/09 08:02:43;;;;;;;4.60;1.45;;;;;;;;;;5028788;28;20279;-68
2021/05/09 08:05:10;;;;;;;2.00;1.15;;;;;;;;;;5031321;28;20060;-68
2021/05/09 08:07:35;;;;;;;2.13;1.13;;;;;;;;;;5028410;28;20075;-69
2021/05/09 08:10:00;;;;;;;3.28;1.13;;;;;;;;;;5031248;28;20021;-69
2021/05/09 08:12:25;;;;;;;4.13;1.30;;;;;;;;;;5031568;28;20492;-69
2021/05/09 08:14:51;;;;;;;2.17;1.10;;;;;;;;;;5031476;28;20029;-68
2021/05/09 08:17:16;;;;;;;2.03;0.95;;;;;;;;;;5031479;28;20444;-68
2021/05/09 08:19:41;;;;;;;1.80;1.48;;;;;;;;;;5031166;28;20028;-68
2021/05/09 08:22:06;;;;;;;1.25;0.70;;;;;;;;;;5030914;28;20021;-69
2021/05/09 08:24:32;;;;;;;4.18;1.17;;;;;;;;;;5031032;28;20017;-68
2021/05/09 08:26:57;;;;;;;1.58;1.00;;;;;;;;;;5031022;28;20030;-69
2021/05/09 08:29:23;;;;;;;3.28;1.40;;;;;;;;;;5033835;28;20496;-68
2021/05/09 08:31:48;;;;;;;4.80;1.42;;;;;;;;;;5030615;28;20065;-69
2021/05/09 08:34:13;;;;;;;6.53;1.47;;;;;;;;;;5031011;28;20114;-69
2021/05/09 08:36:38;;;;;;;5.73;1.60;;;;;;;;;;5029915;28;20268;-68
2021/05/09 08:39:04;;;;;;;1.13;0.83;;;;;;;;;;5031649;28;20752;-68
2021/05/09 08:41:29;;;;;;;2.33;0.98;;;;;;;;;;5030656;28;20326;-69
2021/05/09 08:43:54;;;;;;;1.88;1.30;;;;;;;;;;5030288;28;20499;-68
2021/05/09 08:46:20;;;;;;;1.97;1.33;;;;;;;;;;5030583;28;20132;-69
2021/05/09 08:48:47;;;;;;;3.10;1.17;;;;;;;;;;5029878;28;20334;-68
2021/05/09 08:51:12;;;;;;;3.15;1.10;;;;;;;;;;5028797;28;20017;-68
2021/05/09 08:53:37;;;;;;;4.20;1.23;;;;;;;;;;5029954;28;20048;-69
2021/05/09 08:56:02;;;;;;;7.75;1.70;;;;;;;;;;5030650;28;20017;-69
2021/05/09 08:58:27;;;;;;;2.10;1.20;;;;;;;;;;5031144;28;20045;-69
2021/05/09 09:00:53;;;;;;;1.37;1.00;;;;;;;;;;5030682;28;20094;-70
2021/05/09 09:03:18;;;;;;;3.57;1.40;;;;;;;;;;5028759;28;20030;-70
2021/05/09 09:05:44;;;;;;;1.63;1.10;;;;;;;;;;5027449;28;20315;-69
2021/05/09 09:08:10;;;;;;;2.13;1.40;;;;;;;;;;5027520;28;20387;-69
2021/05/09 09:10:35;;;;;;;5.25;1.75;;;;;;;;;;5027577;28;20090;-67
2021/05/09 09:13:02;;;;;;;3.17;1.63;;;;;;;;;;5030244;28;20463;-69
2021/05/09 09:15:47;;;;;;;7.38;1.65;;;;;;;;;;5025887;28;20275;-69
2021/05/09 09:18:25;;;;;;;2.13;1.25;;;;;;;;;;5029588;28;20025;-69
2021/05/09 09:20:50;;;;;;;2.25;1.30;;;;;;;;;;5027294;28;20017;-69
2021/05/09 09:23:15;;;;;;;5.27;1.30;;;;;;;;;;5024180;28;20017;-68
2021/05/09 09:25:41;;;;;;;5.50;1.00;;;;;;;;;;5026768;28;20021;-68
2021/05/09 09:28:06;;;;;;;2.90;0.82;;;;;;;;;;5029236;28;20030;-70
2021/05/09 09:30:46;;;;;;;2.17;0.90;;;;;;;;;;5029349;28;20440;-70
2021/05/09 09:33:15;;;;;;;3.03;1.00;;;;;;;;;;5026101;28;20569;-70
2021/05/09 09:35:42;;;;;;;5.97;1.83;;;;;;;;;;5027484;28;20539;-70
2021/05/09 09:38:20;;;;;;;1.52;1.10;;;;;;;;;;5027528;28;20458;-68
2021/05/09 09:41:04;;;;;;;3.25;1.10;;;;;;;;;;5027859;28;20029;-70
2021/05/09 09:43:30;;;;;;;5.05;2.33;;;;;;;;;;5028804;28;20104;-68
2021/05/09 09:45:55;;;;;;;10.25;1.95;;;;;;;;;;5030243;28;20473;-71
2021/05/09 09:48:33;;;;;;;9.93;1.17;;;;;;;;;;5029536;28;20033;-68
2021/05/09 09:50:58;;;;;;;2.10;1.30;;;;;;;;;;5030517;28;20049;-69
2021/05/09 09:53:31;;;;;;;3.45;1.50;;;;;;;;;;5029857;28;20481;-68
2021/05/09 09:56:09;;;;;;;1.80;1.05;;;;;;;;;;5029479;28;20064;-69
2021/05/09 09:58:42;;;;;;;6.25;1.30;;;;;;;;;;5029868;28;20565;-69
2021/05/09 10:01:08;;;;;;;1.85;1.23;;;;;;;;;;5029307;28;20451;-69
2021/05/09 10:03:33;;;;;;;1.38;1.02;;;;;;;;;;5030043;28;20155;-69
2021/05/09 10:05:59;;;;;;;1.63;0.70;;;;;;;;;;5029051;28;20105;-70
2021/05/09 10:08:25;;;;;;;1.15;0.80;;;;;;;;;;5029481;28;20029;-69
2021/05/09 10:10:51;;;;;;;1.55;1.38;;;;;;;;;;5029973;28;20029;-68
2021/05/09 10:13:16;;;;;;;5.90;0.95;;;;;;;;;;5030035;28;20033;-68
2021/05/09 10:15:41;;;;;;;1.63;0.95;;;;;;;;;;5029943;28;20014;-69
2021/05/09 10:18:06;;;;;;;2.07;1.17;;;;;;;;;;5029930;28;20021;-70
2021/05/09 10:20:32;;;;;;;6.22;1.70;;;;;;;;;;5030044;28;20141;-69
2021/05/09 10:23:04;;;;;;;3.88;1.38;;;;;;;;;;5028919;28;20021;-70
2021/05/09 10:25:41;;;;;;;3.42;1.52;;;;;;;;;;5029748;28;20404;-69
2021/05/09 10:28:10;;;;;;;8.18;1.50;;;;;;;;;;5010088;28;20390;-69
2021/05/09 10:31:01;;;;;;;2.20;1.20;;;;;;;;;;5029299;28;20393;-70
2021/05/09 10:33:39;;;;;;;1.55;1.20;;;;;;;;;;5029416;28;20041;-70
2021/05/09 10:36:08;;;;;;;4.00;2.30;;;;;;;;;;5033114;28;20100;-69
2021/05/09 10:38:53;;;;;;;5.25;2.50;;;;;;;;;;5033314;28;20023;-69
2021/05/09 10:41:19;;;;;;;14.25;4.22;;;;;;;;;;5018764;28;20033;-69
2021/05/09 10:43:44;;;;;;;4.07;1.43;;;;;;;;;;5033812;28;20043;-70
2021/05/09 10:46:10;;;;;;;2.10;1.03;;;;;;;;;;5015424;28;20268;-70
2021/05/09 10:48:36;;;;;;;2.75;1.17;;;;;;;;;;5033523;28;20276;-70
2021/05/09 10:51:01;;;;;;;2.97;2.00;;;;;;;;;;5033506;28;20033;-70
2021/05/09 10:53:29;;;;;;;4.93;1.25;;;;;;;;;;5032821;28;20068;-70
2021/05/09 10:55:55;;;;;;;3.90;1.40;;;;;;;;;;5032977;28;20022;-71
2021/05/09 10:58:40;;;;;;;1.87;1.10;;;;;;;;;;5033645;28;20014;-69
2021/05/09 11:01:08;;;;;;;1.52;1.13;;;;;;;;;;5032511;28;20279;-71
2021/05/09 11:06:02;;;;;;;4.50;1.30;;;;;;;;;;5032394;28;20431;-71
2021/05/09 11:08:42;;;;;;;9.75;1.23;;;;;;;;;;5032484;28;20470;-70
2021/05/09 11:11:12;;;;;;;4.85;1.00;;;;;;;;;;5033233;28;20030;-70
2021/05/09 11:13:55;;;;;;;2.63;1.42;;;;;;;;;;5025851;28;20079;-70
2021/05/09 11:16:21;;;;;;;1.95;1.08;;;;;;;;;;5029037;28;20026;-70
2021/05/09 11:18:55;;;;;;;5.53;1.33;;;;;;;;;;5030478;28;20018;-71
2021/05/09 11:21:20;;;;;;;6.47;1.25;;;;;;;;;;5032099;28;20386;-70
2021/05/09 11:23:45;;;;;;;1.40;1.15;;;;;;;;;;5033135;28;20079;-71
2021/05/09 11:26:43;;;;;;;3.13;1.50;;;;;;;;;;5032194;28;20053;-70
2021/05/09 11:29:19;;;;;;;2.38;1.23;;;;;;;;;;4978162;28;20033;-71
2021/05/09 11:31:48;;;;;;;2.72;1.42;;;;;;;;;;5032286;28;20071;-71
2021/05/09 11:34:14;;;;;;;8.02;2.75;;;;;;;;;;5032019;28;20045;-70
2021/05/09 11:36:40;;;;;;;3.55;1.70;;;;;;;;;;5031120;28;20071;-70
2021/05/09 11:39:16;;;;;;;4.57;1.35;;;;;;;;;;5031296;28;20049;-69
2021/05/09 11:41:51;;;;;;;3.92;1.65;;;;;;;;;;5025149;28;20140;-70
2021/05/09 11:44:17;;;;;;;2.08;1.30;;;;;;;;;;5032067;28;20025;-71
2021/05/09 11:46:43;;;;;;;7.75;1.70;;;;;;;;;;5031766;28;20021;-70
2021/05/09 11:49:17;;;;;;;4.20;1.80;;;;;;;;;;5031268;28;20416;-71
2021/05/09 11:51:53;;;;;;;1.67;1.48;;;;;;;;;;5031100;28;20984;-68
2021/05/09 11:54:18;;;;;;;6.35;1.40;;;;;;;;;;5032266;28;20028;-69
2021/05/09 11:56:57;;;;;;;2.30;1.35;;;;;;;;;;5030860;28;20030;-69
2021/05/09 11:59:29;;;;;;;3.30;1.40;;;;;;;;;;5028895;28;20021;-69
2021/05/09 12:01:54;;;;;;;2.65;1.92;;;;;;;;;;5031197;28;20014;-68
2021/05/09 12:04:20;;;;;;;4.18;1.85;;;;;;;;;;5078243;22;20072;-90
2021/05/09 12:06:45;;;;;;;3.65;1.50;;;;;;;;;;5034882;28;20488;-91
2021/05/09 12:09:10;;;;;;;6.25;1.90;;;;;;;;;;5017558;28;20560;-91
2021/05/09 12:14:39;;;;;;;3.28;1.73;;;;;;;;;;5015095;23;20060;-69
2021/05/09 12:17:04;;;;;;;1.57;1.10;;;;;;;;;;5032169;28;20120;-66
2021/05/09 12:19:29;;;;;;;1.90;1.20;;;;;;;;;;5031526;28;20335;-67
2021/05/09 12:21:58;;;;;;;3.33;1.23;;;;;;;;;;5033647;28;20029;-67
2021/05/09 12:24:24;;;;;;;6.82;1.75;;;;;;;;;;5019929;28;20395;-66
2021/05/09 12:27:03;;;;;;;2.88;1.67;;;;;;;;;;5030334;28;20049;-68
2021/05/09 12:29:29;;;;;;;2.50;1.48;;;;;;;;;;5031989;28;20040;-66
2021/05/09 12:31:55;;;;;;;6.00;1.50;;;;;;;;;;5028919;28;20117;-66
2021/05/09 12:34:23;;;;;;;3.13;1.83;;;;;;;;;;5024243;28;20021;-67
2021/05/09 12:37:03;;;;;;;5.10;1.60;;;;;;;;;;5030203;28;20432;-66
2021/05/09 12:39:28;;;;;;;5.88;1.63;;;;;;;;;;5030330;28;20029;-67
2021/05/09 12:41:54;;;;;;;3.95;1.20;;;;;;;;;;5028912;28;20029;-68
2021/05/09 12:44:22;;;;;;;5.80;1.10;;;;;;;;;;5028011;28;20441;-67
2021/05/09 12:46:48;;;;;;;2.35;1.15;;;;;;;;;;5022910;28;20029;-67
2021/05/09 12:49:20;;;;;;;5.47;2.22;;;;;;;;;;5030378;28;20021;-66
2021/05/09 12:51:52;;;;;;;2.42;0.80;;;;;;;;;;5029154;28;20117;-67
2021/05/09 12:54:37;;;;;;;5.07;1.60;;;;;;;;;;5029897;28;20033;-66
2021/05/09 12:57:17;;;;;;;2.03;1.35;;;;;;;;;;5028428;28;20104;-67
2021/05/09 12:59:46;;;;;;;5.55;1.55;;;;;;;;;;5028673;28;20120;-67
2021/05/09 13:02:13;;;;;;;6.20;1.42;;;;;;;;;;5030238;28;20032;-68
2021/05/09 13:04:44;;;;;;;3.47;1.35;;;;;;;;;;5029865;28;20042;-67
2021/05/09 13:07:12;;;;;;;1.55;1.05;;;;;;;;;;5030043;28;20416;-67
2021/05/09 13:09:37;;;;;;;8.07;1.33;;;;;;;;;;5030143;28;20034;-67
2021/05/09 13:12:03;;;;;;;1.70;1.20;;;;;;;;;;5030501;28;20022;-66
2021/05/09 13:14:40;;;;;;;6.05;2.10;;;;;;;;;;5023270;28;20037;-68
2021/05/09 13:17:05;;;;;;;5.38;1.27;;;;;;;;;;5028409;28;20017;-67
2021/05/09 13:19:30;;;;;;;1.95;1.33;;;;;;;;;;5022846;28;20041;-68
2021/05/09 13:21:56;;;;;;;4.97;2.00;;;;;;;;;;5027448;28;20021;-67
2021/05/09 13:24:21;;;;;;;4.30;0.95;;;;;;;;;;5030486;28;20025;-68
2021/05/09 13:26:46;;;;;;;7.40;1.30;;;;;;;;;;5028095;28;20301;-68
2021/05/09 13:29:11;;;;;;;4.47;1.30;;;;;;;;;;5021195;28;20025;-68
2021/05/09 13:31:36;;;;;;;1.13;0.90;;;;;;;;;;5027918;28;20306;-67
2021/05/09 13:34:02;;;;;;;1.98;1.02;;;;;;;;;;5029962;28;20268;-68
2021/05/09 13:36:27;;;;;;;4.53;1.70;;;;;;;;;;5029861;28;20434;-66
2021/05/09 13:38:53;;;;;;;5.22;1.35;;;;;;;;;;5028362;28;20113;-67
2021/05/09 13:41:18;;;;;;;3.72;1.58;;;;;;;;;;5029526;28;20017;-67
2021/05/09 13:43:44;;;;;;;4.38;1.40;;;;;;;;;;5030179;28;20715;-67
2021/05/09 13:46:11;;;;;;;5.88;1.10;;;;;;;;;;5009436;28;20049;-67
2021/05/09 13:48:36;;;;;;;1.75;1.35;;;;;;;;;;5020253;28;20076;-67
2021/05/09 13:51:01;;;;;;;3.45;1.60;;;;;;;;;;5030024;28;20030;-67
2021/05/09 13:53:27;;;;;;;8.40;1.40;;;;;;;;;;5030085;28;20025;-67
2021/05/09 13:55:53;;;;;;;4.05;1.13;;;;;;;;;;5024770;28;20272;-67
2021/05/09 13:58:18;;;;;;;3.85;1.50;;;;;;;;;;5024222;28;20261;-67
2021/05/09 14:00:43;;;;;;;2.80;1.20;;;;;;;;;;5023817;28;20568;-67
2021/05/09 14:03:08;;;;;;;4.40;1.43;;;;;;;;;;5025653;28;20021;-68
2021/05/09 14:05:34;;;;;;;2.00;1.03;;;;;;;;;;5028987;28;20270;-67
2021/05/09 14:07:59;;;;;;;7.03;1.77;;;;;;;;;;5032838;28;20452;-68
2021/05/09 14:10:24;;;;;;;1.05;0.93;;;;;;;;;;5034086;28;20260;-67
2021/05/09 14:12:50;;;;;;;5.37;1.30;;;;;;;;;;5033350;28;20490;-67
2021/05/09 14:15:15;;;;;;;2.08;1.38;;;;;;;;;;5029865;28;20276;-67
2021/05/09 14:17:41;;;;;;;3.55;1.05;;;;;;;;;;5032111;28;20355;-67
2021/05/09 14:20:06;;;;;;;2.72;1.48;;;;;;;;;;5033223;28;20028;-68
2021/05/09 14:22:31;;;;;;;7.95;1.67;;;;;;;;;;5025647;28;20028;-67
2021/05/09 14:24:57;;;;;;;2.10;1.10;;;;;;;;;;5033766;28;20018;-67
2021/05/09 14:27:24;;;;;;;5.15;1.40;;;;;;;;;;5032417;28;20417;-67
2021/05/09 14:29:49;;;;;;;5.25;1.50;;;;;;;;;;5027069;28;20403;-67
2021/05/09 14:32:14;;;;;;;3.10;1.23;;;;;;;;;;5026623;28;20056;-67
2021/05/09 14:34:39;;;;;;;1.23;1.03;;;;;;;;;;5027220;28;20310;-67
2021/05/09 14:37:04;;;;;;;7.63;2.47;;;;;;;;;;5032458;28;20044;-69
2021/05/09 14:39:29;;;;;;;7.50;1.20;;;;;;;;;;5029909;28;20017;-68
2021/05/09 14:41:55;;;;;;;6.23;1.60;;;;;;;;;;5027646;28;20264;-68
2021/05/09 14:44:20;;;;;;;3.10;1.27;;;;;;;;;;5023898;28;20017;-68